createdAt,value
2023-05-17T04:46:15.370Z,6.03
2023-05-17T04:51:18.279Z,5.20
2023-05-17T04:56:21.035Z,4.00
2023-05-17T05:01:23.895Z,4.40
2023-05-17T05:06:26.789Z,3.87
2023-05-17T05:11:29.719Z,4.20
2023-05-17T05:16:32.512Z,4.10
2023-05-17T05:21:35.367Z,3.57
2023-05-17T05:26:38.225Z,3.63
2023-05-17T05:31:42.912Z,3.23
2023-05-17T05:36:45.805Z,3.53
2023-05-17T05:41:48.680Z,3.60
2023-05-17T05:46:51.612Z,2.77
2023-05-17T05:51:54.477Z,3.30
2023-05-17T05:56:57.297Z,3.47
2023-05-17T06:02:00.120Z,2.93
2023-05-17T06:07:02.903Z,3.23
2023-05-17T06:12:05.837Z,2.80
2023-05-17T06:17:08.620Z,4.43
2023-05-17T06:22:11.412Z,4.07
2023-05-17T06:27:14.220Z,4.10
2023-05-17T06:32:17.075Z,3.53
2023-05-17T06:37:19.918Z,3.20
2023-05-17T06:42:22.722Z,3.90
2023-05-17T06:47:25.653Z,4.43
2023-05-17T06:52:28.600Z,4.00
2023-05-17T06:57:31.584Z,3.53
2023-05-17T07:02:34.910Z,4.17
2023-05-17T07:07:37.901Z,3.77
2023-05-17T07:12:40.932Z,4.33
2023-05-17T07:17:43.820Z,4.10
2023-05-17T07:22:48.224Z,4.73
2023-05-17T07:27:51.003Z,4.73
2023-05-17T07:32:53.961Z,5.47
2023-05-17T07:37:56.795Z,6.00
2023-05-17T07:43:08.375Z,5.83
2023-05-17T07:48:11.264Z,5.10
2023-05-17T07:53:14.150Z,5.87
2023-05-17T07:58:16.934Z,5.30
2023-05-17T08:03:19.787Z,4.90
2023-05-17T08:08:22.772Z,5.07
2023-05-17T08:13:25.664Z,5.00
2023-05-17T08:18:28.639Z,6.07
2023-05-17T08:23:31.569Z,6.03
2023-05-17T08:28:34.933Z,5.40
2023-05-17T08:33:38.155Z,5.80
2023-05-17T08:38:41.364Z,6.40
2023-05-17T08:43:44.863Z,5.97
2023-05-17T08:48:50.533Z,5.40
2023-05-17T08:53:54.005Z,6.60
2023-05-17T08:59:00.675Z,6.30
2023-05-17T09:04:03.758Z,5.70
2023-05-17T09:09:09.356Z,5.57
2023-05-17T09:14:12.198Z,5.60
2023-05-17T09:19:17.714Z,5.00
2023-05-17T09:24:29.239Z,5.03
2023-05-17T09:29:33.128Z,5.10
2023-05-17T09:34:40.946Z,5.13
2023-05-17T09:39:47.573Z,6.30
2023-05-17T09:44:57.728Z,5.30
2023-05-17T09:50:03.610Z,5.40
2023-05-17T09:55:06.811Z,5.90
2023-05-17T10:00:13.460Z,5.53
2023-05-17T10:05:17.933Z,4.83
2023-05-17T10:10:20.876Z,5.23
2023-05-17T10:15:23.980Z,5.80
2023-05-17T10:20:27.446Z,6.10
2023-05-17T10:25:31.277Z,5.67
2023-05-17T10:30:34.760Z,6.63
2023-05-17T10:35:39.300Z,6.83
2023-05-17T10:40:43.538Z,5.93
2023-05-17T10:45:46.703Z,5.33
2023-05-17T10:51:00.939Z,6.83
2023-05-17T10:56:04.299Z,7.77
2023-05-17T11:01:08.502Z,6.40
2023-05-17T11:06:19.425Z,7.67
2023-05-17T11:11:26.770Z,7.10
2023-05-17T11:16:36.209Z,6.30
2023-05-17T11:21:49.164Z,6.40
2023-05-17T11:26:52.316Z,5.23
2023-05-17T11:31:55.139Z,5.80
2023-05-17T11:36:57.986Z,5.63
2023-05-17T11:42:00.979Z,6.40
2023-05-17T11:47:09.681Z,6.27
2023-05-17T11:52:12.786Z,4.90
2023-05-17T11:57:17.782Z,5.73
2023-05-17T12:02:31.163Z,5.33
2023-05-17T12:07:35.122Z,4.33
2023-05-17T12:12:37.944Z,4.70
2023-05-17T12:17:43.237Z,4.60
2023-05-17T12:22:56.276Z,5.03
2023-05-17T12:28:22.263Z,4.93
2023-05-17T12:33:32.511Z,4.53
2023-05-17T12:38:36.622Z,4.13
2023-05-17T12:43:40.235Z,4.57
2023-05-17T12:48:43.851Z,3.20
2023-05-17T12:53:51.900Z,3.93
2023-05-17T12:59:17.356Z,4.10
2023-05-17T13:04:21.587Z,3.43
2023-05-17T13:09:27.861Z,3.13
2023-05-17T13:14:51.843Z,3.70
2023-05-17T13:19:57.689Z,3.23
2023-05-17T13:25:02.668Z,3.77
2023-05-17T13:30:06.572Z,3.87
2023-05-17T13:35:09.881Z,4.53
2023-05-17T13:40:13.198Z,4.10
2023-05-17T13:45:16.572Z,4.30
2023-05-17T13:50:20.999Z,5.10
2023-05-17T13:55:23.910Z,3.90
2023-05-17T14:00:27.070Z,4.03
2023-05-17T14:05:33.365Z,5.43
2023-05-17T14:10:36.755Z,5.67
2023-05-17T14:15:40.156Z,5.97
2023-05-17T14:20:42.976Z,5.40
2023-05-17T14:25:49.027Z,5.20
2023-05-17T14:30:52.027Z,5.17
2023-05-17T14:35:54.846Z,5.07
2023-05-17T14:41:00.651Z,5.07
2023-05-17T14:46:03.911Z,5.33
2023-05-17T14:51:06.999Z,5.67
2023-05-17T14:56:10.011Z,6.50
2023-05-17T15:01:13.304Z,5.20
2023-05-17T15:06:16.291Z,6.00
2023-05-17T15:11:20.137Z,4.60
2023-05-17T15:16:23.201Z,5.70
2023-05-17T15:21:26.276Z,5.27
2023-05-17T15:26:29.275Z,5.70
2023-05-17T15:31:32.721Z,4.83
2023-05-17T15:36:36.530Z,4.47
2023-05-17T15:41:40.537Z,5.73
2023-05-17T15:46:43.385Z,5.03
2023-05-17T15:51:46.617Z,6.67
2023-05-17T15:56:49.475Z,6.70
2023-05-17T16:01:52.299Z,5.00
2023-05-17T16:06:55.137Z,5.90
2023-05-17T16:11:58.018Z,6.07
2023-05-17T16:17:02.447Z,4.33
2023-05-17T16:22:05.370Z,6.17
2023-05-17T16:27:08.475Z,6.87
2023-05-17T16:32:11.369Z,5.97
2023-05-17T16:37:14.182Z,6.90
2023-05-17T16:42:17.017Z,6.00
2023-05-17T16:47:23.746Z,6.53
2023-05-17T16:52:27.221Z,6.67
2023-05-17T16:57:31.807Z,7.07
2023-05-17T17:02:34.629Z,7.63
2023-05-17T17:07:37.501Z,7.07
2023-05-17T17:12:40.605Z,8.40
2023-05-17T17:17:45.058Z,6.17
2023-05-17T17:22:47.924Z,7.17
2023-05-17T17:27:53.118Z,6.23
2023-05-17T17:32:56.440Z,5.87
2023-05-17T17:37:59.394Z,5.47
2023-05-17T17:43:02.238Z,5.30
2023-05-17T17:48:05.523Z,6.20
2023-05-17T17:53:08.587Z,5.57
2023-05-17T17:58:11.547Z,6.07
2023-05-17T18:03:14.364Z,5.80
2023-05-17T18:08:17.207Z,6.20
2023-05-17T18:13:24.153Z,6.97
2023-05-17T18:18:27.680Z,6.93
2023-05-17T18:23:30.912Z,6.47
2023-05-17T18:28:42.552Z,6.63
2023-05-17T18:33:47.175Z,6.20
2023-05-17T18:39:02.954Z,7.13
2023-05-17T18:44:08.944Z,7.33
2023-05-17T18:49:16.885Z,6.33
2023-05-17T18:54:22.630Z,5.93
2023-05-17T18:59:37.619Z,6.07
2023-05-17T19:04:40.857Z,6.20
2023-05-17T19:09:52.814Z,6.03
2023-05-17T19:14:55.700Z,5.70
2023-05-17T19:19:58.648Z,5.57
2023-05-17T19:25:01.704Z,6.27
2023-05-17T19:30:05.060Z,6.47
2023-05-17T19:35:08.443Z,6.23
2023-05-17T19:40:11.871Z,4.77
2023-05-17T19:45:14.932Z,6.53
2023-05-17T19:50:18.045Z,6.03
2023-05-17T19:55:22.115Z,6.57
2023-05-17T20:00:25.377Z,6.43
2023-05-17T20:05:28.434Z,6.50
2023-05-17T20:10:31.690Z,6.90
2023-05-17T20:15:35.015Z,6.03
2023-05-17T20:20:38.059Z,6.13
2023-05-17T20:25:41.850Z,6.00
2023-05-17T20:30:45.962Z,6.07
2023-05-17T20:35:48.931Z,6.67
2023-05-17T20:40:52.489Z,5.77
2023-05-17T20:45:55.907Z,6.10
2023-05-17T20:50:58.844Z,6.03
2023-05-17T20:56:01.917Z,6.20
2023-05-17T21:01:07.999Z,6.30
2023-05-17T21:06:14.360Z,6.07
2023-05-17T21:11:21.411Z,5.40
2023-05-17T21:16:24.725Z,4.70
2023-05-17T21:21:27.819Z,5.43
2023-05-17T21:26:30.977Z,5.97
2023-05-17T21:31:34.019Z,5.53
2023-05-17T21:36:37.062Z,6.13
2023-05-17T21:41:40.141Z,6.90
2023-05-17T21:46:45.638Z,5.80
2023-05-17T21:51:48.761Z,5.90
2023-05-17T21:56:52.793Z,5.67
2023-05-17T22:01:55.873Z,6.53
2023-05-17T22:06:58.972Z,5.33
2023-05-17T22:12:01.969Z,5.43
2023-05-17T22:17:08.637Z,6.40
2023-05-17T22:22:11.820Z,6.20
2023-05-17T22:27:14.689Z,5.77
2023-05-17T22:32:17.633Z,6.07
2023-05-17T22:37:22.795Z,6.40
2023-05-17T22:42:26.128Z,6.00
2023-05-17T22:47:29.230Z,6.33
2023-05-17T22:52:32.690Z,5.40
2023-05-17T22:57:35.840Z,6.33
2023-05-17T23:02:38.898Z,6.33
2023-05-17T23:07:43.408Z,5.13
2023-05-17T23:12:46.361Z,6.47
2023-05-17T23:17:49.272Z,6.53
2023-05-17T23:22:53.117Z,5.67
2023-05-17T23:27:58.164Z,6.57
2023-05-17T23:33:03.040Z,6.00
2023-05-17T23:38:07.228Z,7.37
2023-05-17T23:43:10.380Z,5.37
